Time;durP1;ratioP1;P1;durP2;ratioP2;P2;SDS_P1;SDS_P2;PMS_P1;PMS_P2;Temp;Humidity;BMP_temperature;BMP_pressure;BME280_temperature;BME280_humidity;BME280_pressure;Samples;Min_cycle;Max_cycle;Signal;HPM_P1;HPM_P2
2022/11/04 00:01:18;;;;;;;10.07;7.73;;;;;;;;;;5025262;28;20184;-77
2022/11/04 00:03:44;;;;;;;9.10;7.80;;;;;;;;;;5025193;28;20214;-77
2022/11/04 00:06:10;;;;;;;8.90;7.20;;;;;;;;;;5037910;28;20178;-77
2022/11/04 00:08:36;;;;;;;8.53;7.10;;;;;;;;;;5026595;28;20175;-77
2022/11/04 00:13:47;;;;;;;11.40;6.07;;;;;;;;;;5027614;28;20202;-76
2022/11/04 00:19:00;;;;;;;8.93;6.97;;;;;;;;;;5027054;28;20187;-77
2022/11/04 00:29:42;;;;;;;9.73;7.17;;;;;;;;;;5025403;28;20186;-77
2022/11/04 00:34:54;;;;;;;8.40;6.37;;;;;;;;;;5026623;28;20565;-77
2022/11/04 00:37:20;;;;;;;7.83;6.70;;;;;;;;;;5036727;28;20224;-77
2022/11/04 00:39:46;;;;;;;8.37;5.87;;;;;;;;;;5029023;28;20258;-77
2022/11/04 00:42:12;;;;;;;8.87;6.30;;;;;;;;;;5026271;28;20209;-76
2022/11/04 00:44:38;;;;;;;7.97;5.30;;;;;;;;;;5033943;28;20284;-77
2022/11/04 00:47:04;;;;;;;6.13;5.20;;;;;;;;;;5031031;28;20178;-77
2022/11/04 00:49:31;;;;;;;7.47;5.27;;;;;;;;;;5025926;28;20206;-77
2022/11/04 00:51:57;;;;;;;5.87;4.80;;;;;;;;;;5029211;28;20655;-77
2022/11/04 00:54:23;;;;;;;6.47;4.20;;;;;;;;;;5047222;28;20206;-77
2022/11/04 00:56:49;;;;;;;7.17;5.13;;;;;;;;;;5031992;28;20561;-76
2022/11/04 00:59:15;;;;;;;6.53;4.17;;;;;;;;;;5037346;28;20812;-76
2022/11/04 01:01:42;;;;;;;4.10;3.70;;;;;;;;;;5027441;28;20186;-76
2022/11/04 01:04:08;;;;;;;4.77;3.70;;;;;;;;;;5025484;28;20921;-76
2022/11/04 01:06:35;;;;;;;3.93;3.43;;;;;;;;;;5025837;28;20651;-77
2022/11/04 01:09:03;;;;;;;3.70;3.30;;;;;;;;;;5024619;28;20221;-77
2022/11/04 01:11:30;;;;;;;3.87;3.13;;;;;;;;;;5034721;28;20182;-77
2022/11/04 01:13:56;;;;;;;3.13;2.73;;;;;;;;;;5029968;28;20241;-77
2022/11/04 01:16:23;;;;;;;3.47;2.87;;;;;;;;;;5017732;28;20182;-77
2022/11/04 01:18:49;;;;;;;2.90;2.40;;;;;;;;;;5009838;28;20213;-76
2022/11/04 01:21:16;;;;;;;4.20;2.60;;;;;;;;;;5027411;28;20674;-77
2022/11/04 01:23:43;;;;;;;3.40;2.60;;;;;;;;;;5029706;28;20245;-76
2022/11/04 01:26:13;;;;;;;4.33;2.60;;;;;;;;;;5013925;28;20247;-77
2022/11/04 01:28:40;;;;;;;4.30;2.60;;;;;;;;;;5025172;28;20179;-77
2022/11/04 01:31:10;;;;;;;6.60;2.40;;;;;;;;;;5023910;28;20193;-77
2022/11/04 01:33:36;;;;;;;4.33;2.23;;;;;;;;;;5026250;28;20849;-77
2022/11/04 01:36:03;;;;;;;3.10;2.27;;;;;;;;;;5026304;28;20179;-77
2022/11/04 01:38:29;;;;;;;2.27;2.07;;;;;;;;;;5024098;28;20638;-77
2022/11/04 01:40:56;;;;;;;3.90;2.10;;;;;;;;;;5031014;28;20880;-77
2022/11/04 01:43:22;;;;;;;2.03;1.80;;;;;;;;;;5036485;28;20744;-76
2022/11/04 01:46:08;;;;;;;2.27;2.00;;;;;;;;;;5024826;28;20221;-77
2022/11/04 01:48:35;;;;;;;2.70;1.77;;;;;;;;;;5023996;28;20174;-76
2022/11/04 01:51:01;;;;;;;2.00;1.80;;;;;;;;;;5024090;28;20186;-77
2022/11/04 01:53:30;;;;;;;2.63;1.90;;;;;;;;;;5030488;28;20571;-77
2022/11/04 01:55:57;;;;;;;2.63;1.90;;;;;;;;;;5025480;28;20193;-76
2022/11/04 01:58:25;;;;;;;1.93;1.60;;;;;;;;;;5035962;28;20232;-77
2022/11/04 02:00:51;;;;;;;3.87;2.00;;;;;;;;;;5029258;28;20289;-76
2022/11/04 02:03:19;;;;;;;2.63;1.90;;;;;;;;;;5027288;28;20209;-77
2022/11/04 02:05:46;;;;;;;2.17;1.80;;;;;;;;;;5024906;28;20231;-76
2022/11/04 02:08:13;;;;;;;2.43;1.80;;;;;;;;;;5032437;28;20178;-77
2022/11/04 02:10:41;;;;;;;1.83;1.73;;;;;;;;;;5029727;28;20271;-77
2022/11/04 02:13:07;;;;;;;2.07;1.87;;;;;;;;;;5030026;28;20181;-77
2022/11/04 02:15:36;;;;;;;2.03;1.70;;;;;;;;;;5033999;28;20205;-77
2022/11/04 02:18:08;;;;;;;1.80;1.60;;;;;;;;;;5035409;28;20186;-76
2022/11/04 02:20:43;;;;;;;1.77;1.67;;;;;;;;;;5040277;28;20205;-76
2022/11/04 02:23:42;;;;;;;2.43;1.60;;;;;;;;;;5023686;28;20676;-78
2022/11/04 02:26:15;;;;;;;2.10;1.90;;;;;;;;;;4991110;28;20199;-76
2022/11/04 02:28:41;;;;;;;4.00;1.87;;;;;;;;;;5025373;28;20191;-76
2022/11/04 02:31:26;;;;;;;2.33;1.90;;;;;;;;;;5024615;28;20215;-76
2022/11/04 02:34:11;;;;;;;3.63;1.80;;;;;;;;;;5037861;28;20197;-76
2022/11/04 02:36:47;;;;;;;3.03;1.73;;;;;;;;;;5025297;28;20186;-76
2022/11/04 02:39:34;;;;;;;3.00;2.00;;;;;;;;;;5030649;28;20822;-76
2022/11/04 02:42:04;;;;;;;2.73;2.20;;;;;;;;;;5037959;28;20207;-76
2022/11/04 02:44:43;;;;;;;3.47;2.50;;;;;;;;;;5033856;28;20205;-76
2022/11/04 02:47:14;;;;;;;2.03;1.83;;;;;;;;;;5033793;28;20286;-76
2022/11/04 02:49:57;;;;;;;4.20;1.90;;;;;;;;;;5040593;28;20181;-76
2022/11/04 02:52:32;;;;;;;1.77;1.67;;;;;;;;;;5027466;28;20262;-76
2022/11/04 02:55:28;;;;;;;3.23;1.80;;;;;;;;;;5036565;28;20209;-76
2022/11/04 02:57:56;;;;;;;1.93;1.70;;;;;;;;;;5024029;28;20204;-76
2022/11/04 03:00:22;;;;;;;1.80;1.60;;;;;;;;;;5027185;28;20186;-75
2022/11/04 03:03:00;;;;;;;2.63;1.77;;;;;;;;;;5025856;28;20194;-76
2022/11/04 03:05:29;;;;;;;1.60;1.50;;;;;;;;;;5035595;28;20694;-76
2022/11/04 03:07:58;;;;;;;1.70;1.60;;;;;;;;;;5026836;28;20240;-76
2022/11/04 03:10:34;;;;;;;1.80;1.70;;;;;;;;;;5027726;28;20714;-76
2022/11/04 03:13:03;;;;;;;2.23;1.90;;;;;;;;;;5028843;28;20178;-76
2022/11/04 03:15:31;;;;;;;3.33;2.03;;;;;;;;;;5035791;28;20261;-76
2022/11/04 03:18:16;;;;;;;3.27;1.87;;;;;;;;;;5028496;28;20260;-76
2022/11/04 03:20:44;;;;;;;2.53;2.03;;;;;;;;;;5027245;28;20663;-76
2022/11/04 03:23:11;;;;;;;2.73;1.90;;;;;;;;;;5030817;28;20595;-76
2022/11/04 03:25:39;;;;;;;2.07;1.77;;;;;;;;;;5041431;28;20202;-76
2022/11/04 03:28:12;;;;;;;2.50;1.60;;;;;;;;;;5022345;28;20174;-76
2022/11/04 03:30:42;;;;;;;2.97;1.80;;;;;;;;;;5034674;28;20212;-76
2022/11/04 03:33:38;;;;;;;2.03;1.70;;;;;;;;;;5056126;22;20364;-75
2022/11/04 03:36:05;;;;;;;3.17;1.83;;;;;;;;;;5045933;28;20216;-74
2022/11/04 03:38:31;;;;;;;2.63;1.73;;;;;;;;;;5042288;28;20666;-74
2022/11/04 03:40:59;;;;;;;4.40;2.07;;;;;;;;;;5046053;28;20259;-75
2022/11/04 03:43:26;;;;;;;6.00;1.90;;;;;;;;;;5037006;28;20462;-75
2022/11/04 03:45:53;;;;;;;3.77;1.63;;;;;;;;;;5020858;28;20312;-74
2022/11/04 03:48:20;;;;;;;5.10;1.70;;;;;;;;;;5019655;28;20187;-75
2022/11/04 03:50:47;;;;;;;5.63;1.80;;;;;;;;;;5021965;28;20182;-74
2022/11/04 03:53:16;;;;;;;4.37;1.80;;;;;;;;;;5021601;28;20225;-75
2022/11/04 03:55:42;;;;;;;4.80;1.63;;;;;;;;;;5018157;28;20174;-75
2022/11/04 03:58:15;;;;;;;4.93;1.60;;;;;;;;;;5021478;28;20240;-75
2022/11/04 04:00:46;;;;;;;3.90;1.53;;;;;;;;;;5021206;28;20244;-74
2022/11/04 04:03:18;;;;;;;4.87;1.83;;;;;;;;;;5020335;28;20783;-74
2022/11/04 04:05:51;;;;;;;4.57;1.60;;;;;;;;;;5027162;28;20208;-74
2022/11/04 04:08:20;;;;;;;4.57;1.83;;;;;;;;;;5024012;28;20179;-74
2022/11/04 04:10:50;;;;;;;5.87;2.00;;;;;;;;;;5020409;28;20205;-74
2022/11/04 04:13:25;;;;;;;6.47;2.27;;;;;;;;;;5023546;28;20202;-75
2022/11/04 04:16:00;;;;;;;7.13;1.70;;;;;;;;;;5023677;28;20217;-75
2022/11/04 04:18:30;;;;;;;5.43;1.87;;;;;;;;;;5018587;28;20638;-75
2022/11/04 04:20:59;;;;;;;4.73;1.80;;;;;;;;;;5024412;28;20565;-75
2022/11/04 04:29:01;;;;;;;4.10;1.77;;;;;;;;;;5019282;28;20898;-75
2022/11/04 04:34:13;;;;;;;3.07;1.37;;;;;;;;;;5019922;28;20218;-74
2022/11/04 04:36:48;;;;;;;5.13;1.47;;;;;;;;;;5000991;28;20714;-75
2022/11/04 04:44:58;;;;;;;4.40;1.90;;;;;;;;;;5023032;28;20790;-74
2022/11/04 04:47:26;;;;;;;3.27;1.57;;;;;;;;;;5029313;28;20174;-75
2022/11/04 04:49:53;;;;;;;2.60;1.53;;;;;;;;;;5023557;28;20174;-75
2022/11/04 04:52:20;;;;;;;3.83;2.07;;;;;;;;;;5016947;28;20217;-74
2022/11/04 04:54:46;;;;;;;4.03;1.80;;;;;;;;;;5019210;28;20213;-74
2022/11/04 04:57:13;;;;;;;6.60;2.20;;;;;;;;;;5029561;28;20665;-75
2022/11/04 04:59:39;;;;;;;3.63;2.30;;;;;;;;;;5025209;28;20236;-75
2022/11/04 05:02:05;;;;;;;5.27;2.83;;;;;;;;;;5038110;28;20293;-74
2022/11/04 05:04:31;;;;;;;4.53;2.30;;;;;;;;;;5046861;28;20233;-74
2022/11/04 05:06:57;;;;;;;3.73;2.20;;;;;;;;;;5025911;28;20496;-74
2022/11/04 05:09:23;;;;;;;7.00;2.90;;;;;;;;;;5024124;28;20426;-74
2022/11/04 05:11:50;;;;;;;4.57;2.30;;;;;;;;;;5032151;28;20645;-74
2022/11/04 05:14:16;;;;;;;5.03;2.50;;;;;;;;;;5038015;28;20201;-74
2022/11/04 05:16:42;;;;;;;4.87;2.30;;;;;;;;;;5028806;28;20179;-74
2022/11/04 05:19:08;;;;;;;5.37;2.30;;;;;;;;;;5024219;28;20182;-74
2022/11/04 05:21:34;;;;;;;5.60;2.30;;;;;;;;;;5022656;28;20190;-74
2022/11/04 05:24:01;;;;;;;5.10;2.37;;;;;;;;;;5029011;28;20293;-74
2022/11/04 05:26:27;;;;;;;5.80;2.20;;;;;;;;;;5032180;28;20185;-74
2022/11/04 05:28:53;;;;;;;5.73;2.10;;;;;;;;;;5030473;28;20174;-75
2022/11/04 05:31:19;;;;;;;3.83;2.10;;;;;;;;;;5019247;28;20685;-75
2022/11/04 05:33:45;;;;;;;3.97;1.93;;;;;;;;;;5030919;28;20219;-74
2022/11/04 05:36:12;;;;;;;3.27;2.20;;;;;;;;;;5024345;28;20186;-74
2022/11/04 05:38:39;;;;;;;4.07;2.10;;;;;;;;;;5028231;28;21880;-75
2022/11/04 05:41:06;;;;;;;5.63;2.30;;;;;;;;;;5040103;28;20264;-74
2022/11/04 05:43:33;;;;;;;3.50;1.93;;;;;;;;;;5040393;28;20260;-74
2022/11/04 05:45:59;;;;;;;4.07;2.40;;;;;;;;;;5032387;28;20221;-74
2022/11/04 05:48:26;;;;;;;5.27;2.50;;;;;;;;;;5028907;28;20182;-75
2022/11/04 05:50:52;;;;;;;4.90;2.23;;;;;;;;;;5028002;28;20235;-74
2022/11/04 05:53:18;;;;;;;4.73;2.50;;;;;;;;;;5027804;28;20198;-75
2022/11/04 05:55:44;;;;;;;6.60;2.60;;;;;;;;;;5037973;28;20166;-75
2022/11/04 05:58:10;;;;;;;4.07;2.43;;;;;;;;;;5046923;28;20174;-75
2022/11/04 06:00:36;;;;;;;5.53;2.40;;;;;;;;;;5026448;28;20269;-75
2022/11/04 06:03:03;;;;;;;6.23;2.60;;;;;;;;;;5033796;28;20731;-75
2022/11/04 06:05:29;;;;;;;4.03;2.20;;;;;;;;;;5025209;28;20202;-75
2022/11/04 06:07:55;;;;;;;5.10;2.20;;;;;;;;;;5024477;28;20269;-75
2022/11/04 06:10:22;;;;;;;4.85;2.15;;;;;;;;;;5023655;28;20441;-75
2022/11/04 06:12:48;;;;;;;5.93;1.97;;;;;;;;;;5029620;28;20187;-76
2022/11/04 06:15:14;;;;;;;5.10;1.83;;;;;;;;;;5025729;28;20186;-77
2022/11/04 06:17:41;;;;;;;4.72;2.10;;;;;;;;;;5007218;28;20440;-75
2022/11/04 06:20:07;;;;;;;4.93;2.10;;;;;;;;;;5035564;28;20166;-75
2022/11/04 06:22:33;;;;;;;7.70;2.20;;;;;;;;;;5027502;28;20183;-76
2022/11/04 06:24:59;;;;;;;5.27;2.10;;;;;;;;;;5035541;28;20220;-76
2022/11/04 06:27:25;;;;;;;4.47;2.10;;;;;;;;;;5046987;28;20666;-76
2022/11/04 06:29:52;;;;;;;4.70;2.10;;;;;;;;;;5028952;28;20646;-75
2022/11/04 06:32:19;;;;;;;5.17;2.10;;;;;;;;;;5040020;28;21334;-75
2022/11/04 06:34:45;;;;;;;6.47;2.50;;;;;;;;;;5037829;28;20218;-76
2022/11/04 06:37:12;;;;;;;6.27;2.60;;;;;;;;;;5022692;28;20245;-73
2022/11/04 06:39:38;;;;;;;5.77;2.10;;;;;;;;;;5030284;28;20186;-75
2022/11/04 06:42:04;;;;;;;6.13;2.80;;;;;;;;;;5027817;28;20190;-75
2022/11/04 06:44:32;;;;;;;4.03;2.10;;;;;;;;;;5029953;28;20220;-75
2022/11/04 06:46:58;;;;;;;4.87;2.10;;;;;;;;;;5043443;28;20182;-75
2022/11/04 06:49:24;;;;;;;7.50;2.77;;;;;;;;;;5029473;28;20179;-76
2022/11/04 06:51:51;;;;;;;6.53;2.57;;;;;;;;;;5033476;28;20604;-75
2022/11/04 06:54:17;;;;;;;4.47;1.80;;;;;;;;;;5033738;28;20414;-75
2022/11/04 06:56:44;;;;;;;4.57;1.63;;;;;;;;;;5029597;28;20673;-75
2022/11/04 06:59:17;;;;;;;3.90;1.60;;;;;;;;;;5027192;28;20549;-75
2022/11/04 07:01:43;;;;;;;3.63;1.67;;;;;;;;;;5034620;28;20210;-76
2022/11/04 07:04:09;;;;;;;3.87;1.57;;;;;;;;;;5050659;28;20574;-76
2022/11/04 07:06:35;;;;;;;4.27;1.73;;;;;;;;;;5035731;28;20265;-75
2022/11/04 07:09:02;;;;;;;4.40;1.60;;;;;;;;;;5030931;28;20716;-75
2022/11/04 07:11:29;;;;;;;2.77;1.57;;;;;;;;;;5030310;28;20233;-75
2022/11/04 07:13:56;;;;;;;4.90;1.50;;;;;;;;;;5030139;28;20202;-75
2022/11/04 07:16:22;;;;;;;4.03;1.90;;;;;;;;;;5022248;28;20206;-76
2022/11/04 07:18:50;;;;;;;5.70;1.70;;;;;;;;;;5035335;28;20186;-75
2022/11/04 07:21:17;;;;;;;4.10;1.70;;;;;;;;;;5029005;28;20258;-75
2022/11/04 07:23:43;;;;;;;4.27;1.50;;;;;;;;;;5029781;28;20210;-76
2022/11/04 07:26:10;;;;;;;3.10;1.60;;;;;;;;;;5031831;28;20541;-75
2022/11/04 07:28:36;;;;;;;3.27;1.40;;;;;;;;;;5037697;28;20653;-75
2022/11/04 07:31:03;;;;;;;3.07;1.73;;;;;;;;;;5037800;28;20191;-75
2022/11/04 07:33:31;;;;;;;3.10;1.50;;;;;;;;;;5024057;28;20217;-75
2022/11/04 07:35:57;;;;;;;4.13;1.60;;;;;;;;;;5042773;28;20178;-75
2022/11/04 07:38:23;;;;;;;3.37;1.70;;;;;;;;;;5027720;28;20186;-75
2022/11/04 07:40:50;;;;;;;3.50;1.70;;;;;;;;;;5036954;28;20209;-75
2022/11/04 07:43:16;;;;;;;3.77;1.40;;;;;;;;;;5029429;28;20214;-75
2022/11/04 07:45:42;;;;;;;3.20;1.60;;;;;;;;;;5025411;28;20207;-75
2022/11/04 07:48:08;;;;;;;3.97;2.00;;;;;;;;;;5026936;28;20186;-75
2022/11/04 07:50:37;;;;;;;4.07;1.83;;;;;;;;;;5025271;28;20557;-75
2022/11/04 07:53:03;;;;;;;2.33;1.40;;;;;;;;;;5028411;28;20835;-75
2022/11/04 07:55:30;;;;;;;2.93;1.50;;;;;;;;;;5032739;28;20213;-75
2022/11/04 07:57:56;;;;;;;6.03;1.70;;;;;;;;;;5029538;28;20202;-75
2022/11/04 08:00:22;;;;;;;5.23;1.60;;;;;;;;;;5035779;28;20189;-75
2022/11/04 08:02:48;;;;;;;2.90;1.40;;;;;;;;;;5033869;28;20713;-75
2022/11/04 08:05:14;;;;;;;2.83;1.53;;;;;;;;;;5030334;28;20225;-75
2022/11/04 08:07:41;;;;;;;3.37;1.63;;;;;;;;;;5025054;28;20613;-75
2022/11/04 08:10:07;;;;;;;2.87;1.43;;;;;;;;;;5026567;28;20284;-75
2022/11/04 08:12:34;;;;;;;2.50;1.30;;;;;;;;;;5027381;28;20253;-75
2022/11/04 08:15:00;;;;;;;4.37;1.30;;;;;;;;;;5028033;28;20656;-75
2022/11/04 08:17:26;;;;;;;4.87;1.60;;;;;;;;;;5018922;28;20594;-75
2022/11/04 08:19:52;;;;;;;3.47;1.33;;;;;;;;;;5015855;28;20229;-75
2022/11/04 08:22:19;;;;;;;3.93;1.70;;;;;;;;;;4987180;28;20211;-74
2022/11/04 08:24:46;;;;;;;4.13;1.53;;;;;;;;;;5017484;28;20230;-75
2022/11/04 08:27:12;;;;;;;3.50;1.63;;;;;;;;;;5019142;28;20199;-74
2022/11/04 08:29:39;;;;;;;3.33;1.60;;;;;;;;;;5020063;28;20673;-75
2022/11/04 08:32:06;;;;;;;4.10;1.47;;;;;;;;;;5001255;28;20174;-75
2022/11/04 08:34:33;;;;;;;2.83;1.33;;;;;;;;;;5015356;28;20249;-73
2022/11/04 08:36:59;;;;;;;3.00;1.50;;;;;;;;;;5016018;28;20178;-73
2022/11/04 08:39:26;;;;;;;2.43;1.20;;;;;;;;;;5017773;28;20213;-74
2022/11/04 08:41:55;;;;;;;2.70;1.43;;;;;;;;;;5022425;28;20186;-75
2022/11/04 08:44:22;;;;;;;3.43;1.40;;;;;;;;;;5021637;28;20974;-74
2022/11/04 08:46:48;;;;;;;5.33;2.60;;;;;;;;;;5019870;28;20233;-74
2022/11/04 08:49:15;;;;;;;3.20;2.00;;;;;;;;;;5016100;28;20787;-74
2022/11/04 08:51:43;;;;;;;3.63;1.97;;;;;;;;;;4984338;28;20549;-74
2022/11/04 08:54:10;;;;;;;3.47;1.80;;;;;;;;;;5016985;28;20248;-74
2022/11/04 08:56:37;;;;;;;3.00;1.70;;;;;;;;;;5017546;28;20600;-74
2022/11/04 08:59:04;;;;;;;4.57;1.70;;;;;;;;;;5035226;28;20190;-74
2022/11/04 09:01:32;;;;;;;1.83;1.33;;;;;;;;;;5014883;28;20657;-73
2022/11/04 09:03:58;;;;;;;3.30;1.50;;;;;;;;;;5018203;28;20211;-74
2022/11/04 09:06:26;;;;;;;3.23;1.50;;;;;;;;;;5015344;28;20186;-74
2022/11/04 09:08:55;;;;;;;3.03;1.30;;;;;;;;;;5015833;28;20225;-74
2022/11/04 09:11:22;;;;;;;4.27;1.50;;;;;;;;;;5015995;28;20194;-74
2022/11/04 09:13:48;;;;;;;2.57;1.30;;;;;;;;;;5000558;28;20264;-74
2022/11/04 09:16:15;;;;;;;3.93;1.50;;;;;;;;;;5013283;28;20198;-73
2022/11/04 09:18:41;;;;;;;3.87;1.50;;;;;;;;;;5014148;28;20183;-74
2022/11/04 09:21:08;;;;;;;4.03;1.63;;;;;;;;;;5015385;28;20524;-75
2022/11/04 09:23:34;;;;;;;3.10;1.60;;;;;;;;;;5016554;28;20261;-74
2022/11/04 09:26:05;;;;;;;6.97;1.90;;;;;;;;;;5016129;28;20213;-74
2022/11/04 09:28:31;;;;;;;2.57;1.40;;;;;;;;;;5018313;28;20277;-74
2022/11/04 09:30:57;;;;;;;4.60;1.53;;;;;;;;;;5017752;28;20249;-74
2022/11/04 09:33:24;;;;;;;3.00;1.47;;;;;;;;;;5021085;22;20224;-81
2022/11/04 09:35:57;;;;;;;4.03;1.70;;;;;;;;;;5056524;28;20566;-81
2022/11/04 09:38:24;;;;;;;2.60;1.40;;;;;;;;;;5044918;28;20188;-80
2022/11/04 09:40:50;;;;;;;3.17;1.60;;;;;;;;;;5041640;28;20702;-81
2022/11/04 09:43:19;;;;;;;2.40;1.60;;;;;;;;;;5045246;28;20214;-79
2022/11/04 09:45:45;;;;;;;2.13;1.63;;;;;;;;;;5064849;28;20220;-79
2022/11/04 09:48:26;;;;;;;2.60;1.40;;;;;;;;;;5055193;28;20181;-79
2022/11/04 09:50:54;;;;;;;3.73;1.50;;;;;;;;;;5063295;28;20189;-79
2022/11/04 09:53:27;;;;;;;3.80;1.90;;;;;;;;;;5060571;28;20181;-77
2022/11/04 09:55:59;;;;;;;4.10;2.07;;;;;;;;;;5066311;28;20254;-78
2022/11/04 09:58:26;;;;;;;4.50;1.87;;;;;;;;;;5058950;28;20603;-80
2022/11/04 10:00:59;;;;;;;2.40;1.70;;;;;;;;;;5046148;28;20190;-83
2022/11/04 10:03:31;;;;;;;2.47;1.90;;;;;;;;;;5069801;28;20292;-78
2022/11/04 10:06:04;;;;;;;3.53;1.60;;;;;;;;;;5059674;28;20717;-80
2022/11/04 10:08:51;;;;;;;3.37;1.70;;;;;;;;;;5062292;28;20588;-78
2022/11/04 10:11:20;;;;;;;3.13;1.60;;;;;;;;;;5067938;28;20177;-79
2022/11/04 10:14:01;;;;;;;7.43;3.00;;;;;;;;;;5072671;28;20222;-78
2022/11/04 10:16:35;;;;;;;4.30;2.17;;;;;;;;;;5063937;28;20851;-78
2022/11/04 10:19:08;;;;;;;2.90;2.10;;;;;;;;;;5067142;28;20300;-78
2022/11/04 10:21:53;;;;;;;4.27;2.00;;;;;;;;;;5067392;28;20273;-78
2022/11/04 10:24:23;;;;;;;3.40;1.80;;;;;;;;;;5084443;28;20213;-78
2022/11/04 10:26:56;;;;;;;3.63;1.70;;;;;;;;;;5062371;28;20211;-78
2022/11/04 10:29:42;;;;;;;4.00;1.60;;;;;;;;;;5067244;28;20178;-78
2022/11/04 10:32:21;;;;;;;4.13;1.67;;;;;;;;;;5069878;28;20716;-76
2022/11/04 10:34:58;;;;;;;3.50;1.70;;;;;;;;;;5058575;28;20224;-78
2022/11/04 10:37:25;;;;;;;3.00;1.37;;;;;;;;;;5079008;28;20226;-78
2022/11/04 10:39:55;;;;;;;3.60;1.63;;;;;;;;;;5030153;28;20193;-80
2022/11/04 10:42:21;;;;;;;3.27;1.67;;;;;;;;;;5054172;28;20204;-78
2022/11/04 10:44:49;;;;;;;3.83;1.70;;;;;;;;;;5055650;28;20224;-79
2022/11/04 10:47:28;;;;;;;4.80;1.80;;;;;;;;;;5055221;28;20316;-78
2022/11/04 10:50:00;;;;;;;6.80;2.20;;;;;;;;;;5078065;28;20190;-78
2022/11/04 10:52:26;;;;;;;2.70;1.70;;;;;;;;;;5059505;28;20189;-79
2022/11/04 10:54:52;;;;;;;4.47;1.70;;;;;;;;;;5064763;28;20260;-78
2022/11/04 10:57:20;;;;;;;2.57;1.60;;;;;;;;;;5081648;28;20182;-79
2022/11/04 10:59:56;;;;;;;2.70;1.70;;;;;;;;;;5074299;28;20193;-79
2022/11/04 11:02:37;;;;;;;2.10;1.60;;;;;;;;;;5070559;28;20204;-80
2022/11/04 11:05:15;;;;;;;3.90;1.63;;;;;;;;;;5065323;28;20212;-81
2022/11/04 11:07:43;;;;;;;3.90;1.50;;;;;;;;;;5068833;28;20529;-79
2022/11/04 11:10:25;;;;;;;3.00;1.70;;;;;;;;;;5070367;28;20172;-79
2022/11/04 11:12:51;;;;;;;4.63;1.60;;;;;;;;;;5069941;28;20566;-78
2022/11/04 11:15:28;;;;;;;2.83;1.50;;;;;;;;;;5081987;28;20607;-79
2022/11/04 11:18:00;;;;;;;2.87;1.60;;;;;;;;;;5052281;28;20189;-79
2022/11/04 11:20:27;;;;;;;3.53;1.80;;;;;;;;;;5075484;28;20206;-79
2022/11/04 11:22:54;;;;;;;4.93;1.70;;;;;;;;;;5074328;28;20242;-79
2022/11/04 11:25:22;;;;;;;5.70;1.90;;;;;;;;;;5065931;28;20262;-78
2022/11/04 11:27:51;;;;;;;3.50;1.50;;;;;;;;;;5069320;28;20170;-79
2022/11/04 11:30:23;;;;;;;11.77;4.50;;;;;;;;;;5059511;28;20213;-81
2022/11/04 11:32:54;;;;;;;11.07;2.70;;;;;;;;;;5070096;28;20177;-81
2022/11/04 11:35:26;;;;;;;3.67;1.73;;;;;;;;;;5068520;28;20221;-82
2022/11/04 11:37:53;;;;;;;3.57;1.70;;;;;;;;;;5072075;28;20196;-80
2022/11/04 11:40:27;;;;;;;2.77;1.60;;;;;;;;;;5057373;28;20276;-81
2022/11/04 11:42:55;;;;;;;3.43;1.83;;;;;;;;;;5071623;28;20242;-81
2022/11/04 11:45:22;;;;;;;4.30;1.60;;;;;;;;;;5054460;28;20219;-77
2022/11/04 11:47:53;;;;;;;2.70;1.60;;;;;;;;;;5070742;28;20170;-82
2022/11/04 11:50:34;;;;;;;4.83;1.93;;;;;;;;;;5067844;28;20184;-80
2022/11/04 11:53:12;;;;;;;4.80;2.03;;;;;;;;;;5064014;28;20200;-80
2022/11/04 11:55:41;;;;;;;4.70;2.00;;;;;;;;;;5066213;28;20272;-80
2022/11/04 11:58:20;;;;;;;3.67;1.63;;;;;;;;;;5050882;28;20274;-80
2022/11/04 12:00:52;;;;;;;3.90;1.50;;;;;;;;;;5056408;28;20228;-83
2022/11/04 12:03:20;;;;;;;3.27;1.80;;;;;;;;;;5071129;28;20254;-80
2022/11/04 12:06:13;;;;;;;3.63;1.90;;;;;;;;;;5080019;28;20223;-81
2022/11/04 12:08:46;;;;;;;5.37;1.53;;;;;;;;;;5074158;28;20518;-81
2022/11/04 12:11:20;;;;;;;5.13;1.47;;;;;;;;;;5064396;28;20700;-80
2022/11/04 12:13:54;;;;;;;4.40;1.70;;;;;;;;;;5067069;28;20265;-82
2022/11/04 12:16:26;;;;;;;5.87;1.43;;;;;;;;;;5070865;28;20856;-81
2022/11/04 12:19:01;;;;;;;3.00;1.37;;;;;;;;;;5067220;28;20192;-80
2022/11/04 12:21:37;;;;;;;3.60;1.40;;;;;;;;;;5068748;28;20861;-80
2022/11/04 12:24:05;;;;;;;3.73;1.60;;;;;;;;;;5055174;28;20279;-80
2022/11/04 12:26:35;;;;;;;7.70;1.63;;;;;;;;;;5065664;28;20699;-81
2022/11/04 12:29:26;;;;;;;4.00;1.83;;;;;;;;;;5066405;28;20600;-80
2022/11/04 12:32:10;;;;;;;5.53;1.70;;;;;;;;;;5067170;28;20216;-80
2022/11/04 12:34:51;;;;;;;3.43;1.50;;;;;;;;;;5069089;28;20220;-80
2022/11/04 12:37:30;;;;;;;3.63;1.37;;;;;;;;;;5048446;28;20601;-80
2022/11/04 12:40:03;;;;;;;4.03;1.70;;;;;;;;;;5070606;28;20192;-81
2022/11/04 12:42:44;;;;;;;2.73;1.50;;;;;;;;;;5072769;28;20283;-80
2022/11/04 12:45:11;;;;;;;3.27;1.67;;;;;;;;;;5063363;28;20294;-80
2022/11/04 12:47:39;;;;;;;5.33;1.60;;;;;;;;;;5082589;28;20185;-81
2022/11/04 12:50:11;;;;;;;4.07;1.80;;;;;;;;;;5065992;28;20200;-80
2022/11/04 12:52:56;;;;;;;4.40;2.17;;;;;;;;;;5062565;28;20181;-81
2022/11/04 12:55:42;;;;;;;3.83;1.70;;;;;;;;;;5077460;28;20205;-80
2022/11/04 12:58:18;;;;;;;2.83;1.70;;;;;;;;;;5061445;28;20185;-80
2022/11/04 13:00:47;;;;;;;3.67;1.70;;;;;;;;;;5075992;28;20223;-80
2022/11/04 13:03:20;;;;;;;3.90;2.03;;;;;;;;;;5071715;28;20181;-80
2022/11/04 13:05:51;;;;;;;5.20;2.20;;;;;;;;;;5072970;28;20459;-81
2022/11/04 13:08:18;;;;;;;2.73;1.73;;;;;;;;;;5093376;28;20181;-80
2022/11/04 13:10:48;;;;;;;2.80;1.43;;;;;;;;;;5068948;28;20652;-80
2022/11/04 13:13:16;;;;;;;6.27;2.10;;;;;;;;;;5077552;28;20181;-80
2022/11/04 13:15:45;;;;;;;3.10;1.50;;;;;;;;;;5074918;28;20551;-80
2022/11/04 13:18:15;;;;;;;3.83;1.60;;;;;;;;;;5075982;28;20263;-80
2022/11/04 13:20:44;;;;;;;2.93;1.83;;;;;;;;;;5082388;28;20193;-80
2022/11/04 13:23:19;;;;;;;4.50;2.00;;;;;;;;;;5075324;28;20215;-80
2022/11/04 13:25:47;;;;;;;2.63;1.90;;;;;;;;;;5072281;28;20206;-80
2022/11/04 13:28:15;;;;;;;6.13;2.50;;;;;;;;;;5069759;28;20244;-80
2022/11/04 13:30:56;;;;;;;4.13;1.80;;;;;;;;;;5073290;28;20674;-80
2022/11/04 13:33:27;;;;;;;4.20;1.70;;;;;;;;;;5087304;28;20246;-80
2022/11/04 13:36:04;;;;;;;5.87;2.30;;;;;;;;;;5072808;28;20191;-80
2022/11/04 13:38:39;;;;;;;3.83;2.17;;;;;;;;;;5085165;28;20202;-80
2022/11/04 13:41:24;;;;;;;6.07;1.90;;;;;;;;;;5079743;28;20193;-80
2022/11/04 13:43:53;;;;;;;6.57;2.83;;;;;;;;;;5052606;28;20291;-80
2022/11/04 13:46:22;;;;;;;6.60;2.20;;;;;;;;;;5091334;28;20200;-80
2022/11/04 13:48:54;;;;;;;4.53;1.70;;;;;;;;;;5061930;28;20177;-80
2022/11/04 13:51:20;;;;;;;4.13;1.70;;;;;;;;;;5072998;28;20205;-80
2022/11/04 13:53:55;;;;;;;3.53;1.63;;;;;;;;;;5078607;28;20197;-80
2022/11/04 13:56:40;;;;;;;4.03;1.50;;;;;;;;;;5075634;28;20664;-80
2022/11/04 13:59:21;;;;;;;3.30;1.70;;;;;;;;;;5059775;28;20185;-80
2022/11/04 14:01:48;;;;;;;2.77;1.50;;;;;;;;;;5070291;28;20185;-80
2022/11/04 14:04:28;;;;;;;4.33;1.80;;;;;;;;;;5085546;28;20204;-80
2022/11/04 14:07:07;;;;;;;6.13;2.10;;;;;;;;;;5086896;28;20229;-80
2022/11/04 14:09:35;;;;;;;3.73;1.80;;;;;;;;;;5078171;28;20177;-80
2022/11/04 14:12:13;;;;;;;4.97;1.73;;;;;;;;;;5072880;28;20177;-79
2022/11/04 14:14:47;;;;;;;4.03;2.03;;;;;;;;;;5064581;28;20207;-78
2022/11/04 14:17:32;;;;;;;5.37;1.90;;;;;;;;;;5065711;28;20185;-79
2022/11/04 14:20:07;;;;;;;3.97;1.97;;;;;;;;;;5074716;28;20176;-81
2022/11/04 14:22:42;;;;;;;3.93;1.90;;;;;;;;;;5084774;28;20184;-81
2022/11/04 14:25:24;;;;;;;2.87;1.90;;;;;;;;;;5074305;28;20216;-82
2022/11/04 14:27:51;;;;;;;2.47;1.70;;;;;;;;;;5075709;28;20660;-81
2022/11/04 14:30:53;;;;;;;3.70;1.77;;;;;;;;;;5093180;28;20183;-79
2022/11/04 14:33:28;;;;;;;3.17;1.50;;;;;;;;;;5032144;28;20192;-80
2022/11/04 14:35:56;;;;;;;4.80;2.27;;;;;;;;;;5067506;28;20198;-80
2022/11/04 14:38:26;;;;;;;10.13;4.30;;;;;;;;;;5073063;28;20185;-80
2022/11/04 14:41:11;;;;;;;12.27;4.90;;;;;;;;;;5072652;28;20264;-80
2022/11/04 14:43:40;;;;;;;4.83;2.40;;;;;;;;;;5075000;28;20196;-80
2022/11/04 14:46:06;;;;;;;4.60;1.93;;;;;;;;;;5069887;28;20210;-80
2022/11/04 14:48:33;;;;;;;5.13;1.80;;;;;;;;;;5057552;28;20185;-80
2022/11/04 14:50:59;;;;;;;2.47;1.40;;;;;;;;;;5070348;28;20194;-80
2022/11/04 14:53:28;;;;;;;2.70;1.20;;;;;;;;;;5078939;28;20231;-81
2022/11/04 14:56:07;;;;;;;3.50;1.50;;;;;;;;;;5067175;28;20508;-80
2022/11/04 14:58:33;;;;;;;4.37;1.70;;;;;;;;;;5071007;28;20533;-81
2022/11/04 15:01:00;;;;;;;2.63;1.20;;;;;;;;;;5061314;28;20185;-80
2022/11/04 15:03:29;;;;;;;3.43;1.33;;;;;;;;;;5095085;28;20205;-81
2022/11/04 15:06:03;;;;;;;2.67;1.40;;;;;;;;;;5059318;28;20680;-80
2022/11/04 15:08:32;;;;;;;2.73;1.40;;;;;;;;;;5068565;28;20790;-80
2022/11/04 15:11:04;;;;;;;2.53;1.20;;;;;;;;;;5072427;28;20219;-80
2022/11/04 15:13:37;;;;;;;3.00;1.37;;;;;;;;;;5072734;28;20253;-80
2022/11/04 15:16:07;;;;;;;3.93;1.20;;;;;;;;;;5050415;28;20211;-80
2022/11/04 15:18:36;;;;;;;4.17;1.30;;;;;;;;;;5069115;28;20181;-80
2022/11/04 15:21:03;;;;;;;3.10;1.60;;;;;;;;;;5065554;28;20189;-80
2022/11/04 15:23:31;;;;;;;4.10;1.20;;;;;;;;;;5063117;28;20208;-80
2022/11/04 15:25:57;;;;;;;3.47;1.60;;;;;;;;;;5072964;28;20231;-80
2022/11/04 15:28:25;;;;;;;5.07;1.87;;;;;;;;;;5064824;28;20272;-80
2022/11/04 15:31:04;;;;;;;3.50;2.00;;;;;;;;;;5050307;28;20181;-80